createdAt,value
2017-10-19T00:00:50.459Z,99.90
2017-10-19T00:03:21.340Z,99.90
2017-10-19T00:05:52.021Z,99.90
2017-10-19T00:08:22.990Z,99.90
2017-10-19T00:10:53.635Z,99.80
2017-10-19T00:13:24.606Z,99.60
2017-10-19T00:15:55.554Z,99.70
2017-10-19T00:18:26.712Z,99.90
2017-10-19T00:20:57.672Z,99.90
2017-10-19T00:23:28.477Z,99.90
2017-10-19T00:25:59.547Z,99.90
2017-10-19T00:28:30.529Z,99.90
2017-10-19T00:31:02.438Z,99.90
2017-10-19T00:33:33.490Z,99.90
2017-10-19T00:36:04.295Z,99.90
2017-10-19T00:38:34.969Z,99.90
2017-10-19T00:41:05.920Z,99.90
2017-10-19T00:43:37.350Z,99.90
2017-10-19T00:46:08.168Z,99.90
2017-10-19T00:48:38.596Z,99.90
2017-10-19T00:51:09.682Z,99.90
2017-10-19T00:53:41.008Z,99.90
2017-10-19T00:56:11.402Z,99.90
2017-10-19T00:58:42.263Z,99.90
2017-10-19T01:01:13.323Z,99.90
2017-10-19T01:03:44.172Z,99.90
2017-10-19T01:06:15.058Z,99.90
2017-10-19T01:08:45.822Z,99.90
2017-10-19T01:11:16.408Z,99.90
2017-10-19T01:13:47.257Z,99.90
2017-10-19T01:16:18.118Z,99.90
2017-10-19T01:18:49.294Z,99.90
2017-10-19T01:21:20.906Z,99.90
2017-10-19T01:23:51.872Z,99.90
2017-10-19T01:26:24.068Z,99.90
2017-10-19T01:28:54.811Z,99.90
2017-10-19T01:31:25.795Z,99.90
2017-10-19T01:33:58.101Z,99.90
2017-10-19T01:36:29.668Z,99.90
2017-10-19T01:39:00.537Z,99.90
2017-10-19T01:41:31.554Z,99.90
2017-10-19T01:44:02.285Z,99.90
2017-10-19T01:46:33.280Z,99.90
2017-10-19T01:49:05.265Z,99.90
2017-10-19T01:51:36.968Z,99.90
2017-10-19T01:54:08.092Z,99.90
2017-10-19T01:56:38.844Z,99.90
2017-10-19T01:59:09.452Z,99.90
2017-10-19T02:01:40.314Z,99.90
2017-10-19T02:04:11.024Z,99.90
2017-10-19T02:06:41.348Z,99.90
2017-10-19T02:09:11.838Z,99.90
2017-10-19T02:11:42.516Z,99.90
2017-10-19T02:14:13.176Z,99.90
2017-10-19T02:16:43.968Z,99.90
2017-10-19T02:19:14.930Z,99.90
2017-10-19T02:21:45.919Z,99.90
2017-10-19T02:24:17.504Z,99.90
2017-10-19T02:26:48.125Z,99.90
2017-10-19T02:29:18.913Z,99.90
2017-10-19T02:31:49.843Z,99.90
2017-10-19T02:34:20.386Z,99.90
2017-10-19T02:36:51.218Z,99.90
2017-10-19T02:39:21.923Z,99.90
2017-10-19T02:41:52.693Z,99.90
2017-10-19T02:44:23.566Z,99.90
2017-10-19T02:46:54.477Z,99.90
2017-10-19T02:49:25.329Z,99.90
2017-10-19T02:51:56.104Z,99.90
2017-10-19T02:54:26.858Z,99.90
2017-10-19T02:56:57.373Z,99.90
2017-10-19T02:59:28.173Z,99.90
2017-10-19T03:01:58.896Z,99.90
2017-10-19T03:04:29.220Z,99.90
2017-10-19T03:06:59.746Z,99.90
2017-10-19T03:09:30.245Z,99.90
2017-10-19T03:12:01.272Z,99.90
2017-10-19T03:14:32.061Z,99.90
2017-10-19T03:17:02.753Z,99.90
2017-10-19T03:19:33.488Z,99.90
2017-10-19T03:22:04.387Z,99.90
2017-10-19T03:24:35.209Z,99.90
2017-10-19T03:27:05.395Z,99.90
2017-10-19T03:29:36.858Z,99.90
2017-10-19T03:32:08.148Z,99.90
2017-10-19T03:34:38.902Z,99.90
2017-10-19T03:37:09.708Z,99.90
2017-10-19T03:39:40.435Z,99.90
2017-10-19T03:42:11.268Z,99.90
2017-10-19T03:44:42.305Z,99.90
2017-10-19T03:47:12.994Z,99.90
2017-10-19T03:49:44.715Z,99.90
2017-10-19T03:52:15.464Z,99.90
2017-10-19T03:54:46.332Z,99.90
2017-10-19T03:57:18.014Z,99.90
2017-10-19T03:59:49.280Z,99.90
2017-10-19T04:02:20.178Z,99.90
2017-10-19T04:04:51.771Z,99.90
2017-10-19T04:07:22.388Z,99.90
2017-10-19T04:09:53.037Z,99.90
2017-10-19T04:12:23.558Z,99.90
2017-10-19T04:14:53.974Z,99.90
2017-10-19T04:17:24.778Z,99.90
2017-10-19T04:19:56.125Z,99.90
2017-10-19T04:22:27.797Z,99.90
2017-10-19T04:24:58.443Z,99.90
2017-10-19T04:27:29.189Z,99.90
2017-10-19T04:29:59.771Z,99.90
2017-10-19T04:32:31.498Z,99.90
2017-10-19T04:35:02.403Z,99.90
2017-10-19T04:37:33.414Z,99.90
2017-10-19T04:40:04.182Z,99.90
2017-10-19T04:42:34.926Z,99.90
2017-10-19T04:45:06.232Z,99.90
2017-10-19T04:47:37.825Z,99.90
2017-10-19T04:50:08.699Z,99.90
2017-10-19T04:52:39.600Z,99.90
2017-10-19T04:55:10.584Z,99.90
2017-10-19T04:57:41.471Z,99.90
2017-10-19T05:00:12.170Z,99.90
2017-10-19T05:02:43.550Z,99.90
2017-10-19T05:05:14.255Z,99.90
2017-10-19T05:07:45.543Z,99.90
2017-10-19T05:10:16.306Z,99.90
2017-10-19T05:12:47.097Z,99.90
2017-10-19T05:15:17.789Z,99.90
2017-10-19T05:17:49.127Z,99.90
2017-10-19T05:20:20.698Z,99.90
2017-10-19T05:22:53.116Z,99.90
2017-10-19T05:25:24.134Z,99.90
2017-10-19T05:27:54.646Z,99.90
2017-10-19T05:30:26.959Z,99.90
2017-10-19T05:32:57.934Z,99.90
2017-10-19T05:35:29.824Z,99.90
2017-10-19T05:38:00.620Z,99.90
2017-10-19T05:40:31.424Z,99.90
2017-10-19T05:43:03.435Z,99.90
2017-10-19T05:45:35.225Z,99.90
2017-10-19T05:48:06.062Z,99.90
2017-10-19T05:50:37.405Z,99.90
2017-10-19T05:53:08.555Z,99.90
2017-10-19T05:55:40.821Z,99.90
2017-10-19T05:58:11.437Z,99.90
2017-10-19T06:00:42.308Z,99.90
2017-10-19T06:03:13.321Z,99.90
2017-10-19T06:05:44.311Z,99.90
2017-10-19T06:08:15.343Z,99.90
2017-10-19T06:10:46.538Z,99.90
2017-10-19T06:13:17.288Z,99.90
2017-10-19T06:15:48.625Z,99.90
2017-10-19T06:18:19.644Z,99.90
2017-10-19T06:20:50.979Z,99.90
2017-10-19T06:23:22.671Z,99.90
2017-10-19T06:25:54.354Z,99.90
2017-10-19T06:28:24.940Z,99.90
2017-10-19T06:30:56.593Z,99.90
2017-10-19T06:33:28.057Z,99.90
2017-10-19T06:35:59.246Z,99.90
2017-10-19T06:38:29.787Z,99.90
2017-10-19T06:41:00.921Z,99.90
2017-10-19T06:43:31.921Z,99.90
2017-10-19T06:46:03.358Z,99.90
2017-10-19T06:48:35.240Z,99.90
2017-10-19T06:51:05.781Z,99.90
2017-10-19T06:53:36.546Z,99.90
2017-10-19T06:56:08.164Z,99.90
2017-10-19T06:58:39.003Z,99.90
2017-10-19T07:01:10.094Z,99.90
2017-10-19T07:03:41.095Z,99.90
2017-10-19T07:06:12.145Z,99.90
2017-10-19T07:08:42.758Z,99.90
2017-10-19T07:11:13.625Z,99.90
2017-10-19T07:13:44.501Z,99.90
2017-10-19T07:16:16.247Z,99.90
2017-10-19T07:18:47.952Z,99.90
2017-10-19T07:21:18.960Z,99.90
2017-10-19T07:23:51.060Z,99.90
2017-10-19T07:26:21.753Z,99.90
2017-10-19T07:28:52.483Z,99.80
2017-10-19T07:31:24.257Z,99.90
2017-10-19T07:33:54.859Z,99.90
2017-10-19T07:36:26.432Z,99.90
2017-10-19T07:38:58.398Z,99.90
2017-10-19T07:41:29.265Z,99.90
2017-10-19T07:44:00.386Z,99.60
2017-10-19T07:46:31.008Z,99.30
2017-10-19T07:49:01.699Z,99.20
2017-10-19T07:51:32.519Z,98.80
2017-10-19T07:54:03.444Z,98.60
2017-10-19T07:56:34.525Z,98.50
2017-10-19T07:59:04.928Z,98.20
2017-10-19T08:01:35.574Z,98.00
2017-10-19T08:04:06.207Z,97.80
2017-10-19T08:06:37.935Z,97.20
2017-10-19T08:09:09.774Z,97.20
2017-10-19T08:11:40.426Z,96.90
2017-10-19T08:14:11.261Z,96.30
2017-10-19T08:16:42.389Z,95.90
2017-10-19T08:19:13.303Z,95.70
2017-10-19T08:21:44.121Z,95.70
2017-10-19T08:24:15.611Z,94.90
2017-10-19T08:26:46.301Z,94.90
2017-10-19T08:29:18.610Z,93.90
2017-10-19T08:31:49.551Z,94.20
2017-10-19T08:34:20.588Z,93.70
2017-10-19T08:36:51.619Z,92.80
2017-10-19T08:39:23.000Z,91.50
2017-10-19T08:41:53.781Z,91.00
2017-10-19T08:44:24.903Z,91.00
2017-10-19T08:46:55.534Z,91.00
2017-10-19T08:49:26.577Z,90.80
2017-10-19T08:51:58.205Z,91.60
2017-10-19T08:54:28.852Z,91.60
2017-10-19T08:56:59.901Z,90.80
2017-10-19T08:59:31.960Z,90.50
2017-10-19T09:02:02.837Z,90.50
2017-10-19T09:04:34.096Z,90.80
2017-10-19T09:07:06.282Z,88.90
2017-10-19T09:09:37.946Z,89.10
2017-10-19T09:12:09.065Z,90.00
2017-10-19T09:14:40.983Z,90.50
2017-10-19T09:17:11.862Z,90.40
2017-10-19T09:19:42.476Z,91.00
2017-10-19T09:22:15.703Z,90.90
2017-10-19T09:24:46.794Z,90.00
2017-10-19T09:27:17.505Z,89.90
2017-10-19T09:29:48.280Z,91.10
2017-10-19T09:32:19.961Z,90.40
2017-10-19T09:34:50.906Z,89.20
2017-10-19T09:37:21.945Z,88.70
2017-10-19T09:39:53.018Z,87.60
2017-10-19T09:42:24.498Z,86.20
2017-10-19T09:44:55.509Z,87.50
2017-10-19T09:47:26.623Z,85.00
2017-10-19T09:49:57.353Z,82.70
2017-10-19T09:52:28.873Z,81.10
2017-10-19T09:55:00.707Z,80.30
2017-10-19T09:57:31.684Z,80.20
2017-10-19T10:00:02.308Z,78.30
2017-10-19T10:02:33.791Z,81.20
2017-10-19T10:05:04.961Z,81.20
2017-10-19T10:07:36.057Z,83.10
2017-10-19T10:10:07.173Z,85.70
2017-10-19T10:12:38.115Z,87.10
2017-10-19T10:15:09.911Z,87.00
2017-10-19T10:17:40.526Z,87.00
2017-10-19T10:20:11.292Z,85.30
2017-10-19T10:22:41.800Z,86.50
2017-10-19T10:25:13.534Z,87.90
2017-10-19T10:27:44.666Z,87.70
2017-10-19T10:32:48.602Z,85.50
2017-10-19T10:37:51.883Z,86.00
2017-10-19T10:40:23.395Z,87.80
2017-10-19T10:42:54.926Z,87.60
2017-10-19T10:45:25.625Z,87.60
2017-10-19T10:47:57.473Z,87.40
2017-10-19T10:50:28.368Z,87.40
2017-10-19T10:52:59.461Z,85.40
2017-10-19T10:55:31.476Z,82.10
2017-10-19T10:58:02.396Z,82.10
2017-10-19T11:00:34.162Z,81.30
2017-10-19T11:03:05.205Z,82.30
2017-10-19T11:05:37.338Z,80.90
2017-10-19T11:08:08.158Z,80.90
2017-10-19T11:10:39.231Z,82.00
2017-10-19T11:13:10.486Z,81.10
2017-10-19T11:15:41.608Z,82.60
2017-10-19T11:18:12.548Z,80.50
2017-10-19T11:20:44.218Z,76.90
2017-10-19T11:23:15.202Z,76.90
2017-10-19T11:25:46.037Z,80.10
2017-10-19T11:28:17.811Z,80.00
2017-10-19T11:30:49.028Z,79.90
2017-10-19T11:33:20.723Z,80.20
2017-10-19T11:35:53.029Z,77.50
2017-10-19T11:38:23.755Z,76.50
2017-10-19T11:40:54.737Z,74.10
2017-10-19T11:43:26.345Z,73.50
2017-10-19T11:45:57.384Z,71.20
2017-10-19T11:51:12.540Z,74.00
2017-10-19T11:53:43.367Z,73.20
2017-10-19T11:56:15.049Z,70.60
2017-10-19T11:58:46.853Z,68.20
2017-10-19T12:01:18.313Z,67.40
2017-10-19T12:03:52.598Z,66.80
2017-10-19T12:06:24.728Z,68.60
2017-10-19T12:08:55.951Z,68.60
2017-10-19T12:11:27.853Z,72.20
2017-10-19T12:13:58.912Z,72.20
2017-10-19T12:16:30.567Z,71.30
2017-10-19T12:19:02.401Z,69.70
2017-10-19T12:21:33.721Z,69.80
2017-10-19T12:24:04.549Z,69.80
2017-10-19T12:26:36.398Z,70.00
2017-10-19T12:29:07.511Z,69.90
2017-10-19T12:31:38.220Z,71.40
2017-10-19T12:34:09.625Z,76.90
2017-10-19T12:36:40.353Z,76.80
2017-10-19T12:39:11.100Z,79.30
2017-10-19T12:41:41.889Z,80.30
2017-10-19T12:44:13.630Z,77.70
2017-10-19T12:46:45.522Z,77.70
2017-10-19T12:49:17.454Z,81.20
2017-10-19T12:51:50.460Z,77.70
2017-10-19T12:54:21.758Z,78.20
2017-10-19T12:56:53.360Z,75.60
2017-10-19T12:59:24.583Z,78.90
2017-10-19T13:01:56.731Z,81.10
2017-10-19T13:04:28.823Z,80.00
2017-10-19T13:07:00.232Z,80.00
2017-10-19T13:09:31.270Z,79.10
2017-10-19T13:14:36.247Z,78.10
2017-10-19T13:17:07.837Z,78.50
2017-10-19T13:19:39.108Z,78.50
2017-10-19T13:22:10.865Z,78.50
2017-10-19T13:24:42.553Z,79.20
2017-10-19T13:27:14.954Z,77.90
2017-10-19T13:29:47.235Z,77.90
2017-10-19T13:32:18.701Z,75.40
2017-10-19T13:34:50.171Z,74.60
2017-10-19T13:37:21.515Z,73.80
2017-10-19T13:39:53.459Z,73.60
2017-10-19T13:42:24.630Z,74.50
2017-10-19T13:44:57.914Z,74.10
2017-10-19T13:47:30.392Z,74.10
2017-10-19T13:50:01.485Z,76.30
2017-10-19T13:52:33.389Z,75.10
2017-10-19T13:55:04.030Z,76.20
2017-10-19T13:57:35.201Z,76.30
2017-10-19T14:00:07.679Z,77.70
2017-10-19T14:02:38.864Z,77.60
2017-10-19T14:05:10.492Z,76.50
2017-10-19T14:07:42.185Z,75.40
2017-10-19T14:10:13.504Z,73.90
2017-10-19T14:12:47.400Z,77.60
2017-10-19T14:15:19.270Z,77.60
2017-10-19T14:17:51.094Z,78.50
2017-10-19T14:20:23.459Z,79.30
2017-10-19T14:22:55.464Z,79.10
2017-10-19T14:25:27.230Z,78.10
2017-10-19T14:27:58.898Z,77.70
2017-10-19T14:30:29.872Z,79.00
2017-10-19T14:33:01.345Z,80.00
2017-10-19T14:35:33.672Z,80.40
2017-10-19T14:38:05.429Z,80.40
2017-10-19T14:40:37.812Z,80.00
2017-10-19T14:43:09.095Z,80.40
2017-10-19T14:45:41.210Z,80.30
2017-10-19T14:48:13.314Z,80.40
2017-10-19T14:50:44.055Z,81.00
2017-10-19T14:53:15.814Z,81.20
2017-10-19T14:55:48.230Z,81.70
2017-10-19T14:58:19.797Z,81.70
2017-10-19T15:00:51.283Z,83.20
2017-10-19T15:03:23.283Z,84.30
2017-10-19T15:05:54.742Z,84.30
2017-10-19T15:08:26.614Z,84.30
2017-10-19T15:10:58.549Z,84.90
2017-10-19T15:13:30.541Z,85.20
2017-10-19T15:16:01.533Z,85.20
2017-10-19T15:18:33.428Z,85.40
2017-10-19T15:21:04.863Z,85.40
2017-10-19T15:23:36.124Z,85.80
2017-10-19T15:26:06.380Z,85.80
2017-10-19T15:28:38.373Z,86.30
2017-10-19T15:31:10.021Z,86.30
2017-10-19T15:33:42.401Z,86.80
2017-10-19T15:36:14.617Z,87.40
2017-10-19T15:38:45.906Z,87.40
2017-10-19T15:41:17.067Z,88.10
2017-10-19T15:43:49.462Z,89.00
2017-10-19T15:46:20.384Z,89.00
2017-10-19T15:48:52.965Z,89.90
2017-10-19T15:51:24.105Z,89.80
2017-10-19T15:53:55.159Z,90.20
2017-10-19T15:56:26.750Z,90.30
2017-10-19T15:58:58.605Z,90.50
2017-10-19T16:01:29.902Z,90.50
2017-10-19T16:04:01.268Z,90.50
2017-10-19T16:06:32.886Z,90.60
2017-10-19T16:09:04.629Z,91.00
2017-10-19T16:11:37.313Z,91.00
2017-10-19T16:14:09.225Z,91.20
2017-10-19T16:16:40.351Z,91.10
2017-10-19T16:19:11.451Z,91.30
2017-10-19T16:21:42.761Z,91.40
2017-10-19T16:24:13.758Z,91.60
2017-10-19T16:26:45.848Z,91.90
2017-10-19T16:29:18.046Z,92.10
2017-10-19T16:31:49.361Z,92.10
2017-10-19T16:34:21.113Z,92.30
2017-10-19T16:36:52.644Z,92.50
2017-10-19T16:39:24.436Z,92.90
2017-10-19T16:41:55.715Z,92.80
2017-10-19T16:44:26.897Z,93.00
2017-10-19T16:46:58.732Z,93.20
2017-10-19T16:49:29.801Z,93.20
2017-10-19T16:52:01.639Z,93.40
2017-10-19T16:54:33.315Z,93.40
2017-10-19T16:57:05.277Z,93.70
2017-10-19T16:59:37.546Z,93.80
2017-10-19T17:02:09.811Z,93.90
2017-10-19T17:04:42.295Z,94.00
2017-10-19T17:07:13.809Z,94.10
2017-10-19T17:09:45.138Z,94.10
2017-10-19T17:12:15.722Z,94.20
2017-10-19T17:14:48.021Z,94.50
2017-10-19T17:17:19.350Z,94.40
2017-10-19T17:19:50.477Z,94.60
2017-10-19T17:22:21.670Z,94.70
2017-10-19T17:24:53.118Z,94.70
2017-10-19T17:27:24.272Z,94.70
2017-10-19T17:29:56.150Z,94.80
2017-10-19T17:32:28.078Z,94.90
2017-10-19T17:35:00.264Z,94.90
2017-10-19T17:37:30.724Z,94.90
2017-10-19T17:40:02.046Z,94.90
2017-10-19T17:42:32.654Z,94.80
2017-10-19T17:45:03.463Z,94.80
2017-10-19T17:47:34.729Z,94.80
2017-10-19T17:50:07.443Z,94.70
2017-10-19T17:52:39.209Z,94.70
2017-10-19T17:55:10.387Z,94.60
2017-10-19T17:57:41.537Z,94.70
2017-10-19T18:00:13.089Z,94.70
2017-10-19T18:02:44.967Z,94.60
2017-10-19T18:05:16.481Z,94.60
2017-10-19T18:07:48.203Z,94.70
2017-10-19T18:10:19.711Z,94.70
2017-10-19T18:12:51.231Z,94.70
2017-10-19T18:15:22.415Z,94.80
2017-10-19T18:17:53.885Z,94.70
2017-10-19T18:20:25.347Z,94.60
2017-10-19T18:22:56.211Z,94.40
2017-10-19T18:25:28.766Z,94.10
2017-10-19T18:28:00.535Z,94.10
2017-10-19T18:30:32.030Z,94.00
2017-10-19T18:33:03.474Z,93.90
2017-10-19T18:35:35.246Z,93.30
2017-10-19T18:38:06.722Z,93.30
2017-10-19T18:40:37.527Z,93.20
2017-10-19T18:43:08.794Z,93.20
2017-10-19T18:45:40.312Z,93.10
2017-10-19T18:48:12.313Z,92.80
2017-10-19T18:50:44.586Z,92.70
2017-10-19T18:53:15.643Z,93.00
2017-10-19T18:55:46.545Z,92.70
2017-10-19T18:58:17.888Z,92.50
2017-10-19T19:00:49.980Z,92.50
2017-10-19T19:03:22.267Z,92.50
2017-10-19T19:05:54.296Z,92.40
2017-10-19T19:08:26.398Z,92.40
2017-10-19T19:10:58.144Z,92.70
2017-10-19T19:13:30.437Z,92.40
2017-10-19T19:16:01.620Z,92.40
2017-10-19T19:18:33.179Z,92.30
2017-10-19T19:21:04.544Z,92.40
2017-10-19T19:23:36.429Z,92.30
2017-10-19T19:26:08.278Z,92.40
2017-10-19T19:28:39.845Z,92.40
2017-10-19T19:31:11.164Z,92.50
2017-10-19T19:33:43.274Z,92.70
2017-10-19T19:36:15.110Z,92.70
2017-10-19T19:38:46.076Z,92.70
2017-10-19T19:41:18.481Z,92.70
2017-10-19T19:43:49.704Z,92.70
2017-10-19T19:46:21.619Z,92.70
2017-10-19T19:48:52.996Z,92.70
2017-10-19T19:51:24.586Z,92.50
2017-10-19T19:53:56.030Z,92.60
2017-10-19T19:56:27.790Z,92.60
2017-10-19T19:58:58.923Z,92.60
2017-10-19T20:01:30.403Z,92.70
2017-10-19T20:04:01.752Z,92.70
2017-10-19T20:06:33.770Z,92.80
2017-10-19T20:09:04.706Z,92.70
2017-10-19T20:11:37.714Z,92.70
2017-10-19T20:14:08.933Z,92.70
2017-10-19T20:16:40.850Z,92.90
2017-10-19T20:19:12.885Z,93.10
2017-10-19T20:21:43.925Z,93.10
2017-10-19T20:24:15.946Z,93.30
2017-10-19T20:26:47.255Z,93.30
2017-10-19T20:29:18.333Z,93.60
2017-10-19T20:31:49.607Z,93.90
2017-10-19T20:34:21.090Z,94.00
2017-10-19T20:36:52.303Z,94.20
2017-10-19T20:39:23.508Z,94.30
2017-10-19T20:41:54.474Z,94.40
2017-10-19T20:44:26.022Z,94.50
2017-10-19T20:46:57.097Z,94.60
2017-10-19T20:49:27.938Z,95.00
2017-10-19T20:51:59.149Z,94.70
2017-10-19T20:54:31.218Z,94.70
2017-10-19T20:57:02.701Z,94.70
2017-10-19T20:59:34.102Z,94.80
2017-10-19T21:02:05.593Z,94.80
2017-10-19T21:04:36.869Z,94.70
2017-10-19T21:07:08.159Z,94.70
2017-10-19T21:09:39.320Z,94.60
2017-10-19T21:12:12.362Z,94.30
2017-10-19T21:14:44.505Z,93.90
2017-10-19T21:17:15.388Z,93.90
2017-10-19T21:19:46.588Z,93.80
2017-10-19T21:22:18.162Z,93.70
2017-10-19T21:24:48.692Z,93.70
2017-10-19T21:27:20.123Z,93.50
2017-10-19T21:29:50.949Z,93.40
2017-10-19T21:32:22.374Z,93.30
2017-10-19T21:34:53.761Z,93.20
2017-10-19T21:37:24.796Z,93.10
2017-10-19T21:39:55.188Z,93.00
2017-10-19T21:42:26.927Z,92.90
2017-10-19T21:44:59.529Z,92.80
2017-10-19T21:47:30.719Z,92.80
2017-10-19T21:50:02.560Z,92.60
2017-10-19T21:52:33.505Z,92.60
2017-10-19T21:55:04.049Z,92.60
2017-10-19T21:57:34.480Z,92.60
2017-10-19T22:00:05.616Z,92.40
2017-10-19T22:02:36.781Z,92.50
2017-10-19T22:05:08.492Z,92.30
2017-10-19T22:07:39.120Z,92.20
2017-10-19T22:10:10.823Z,92.20
2017-10-19T22:12:41.741Z,92.50
2017-10-19T22:15:13.636Z,91.90
2017-10-19T22:17:44.728Z,91.90
2017-10-19T22:20:16.072Z,91.60
2017-10-19T22:22:47.124Z,91.30
2017-10-19T22:25:18.718Z,91.30
2017-10-19T22:27:49.909Z,91.20
2017-10-19T22:30:21.467Z,91.20
2017-10-19T22:32:52.216Z,91.70
2017-10-19T22:35:23.479Z,91.40
2017-10-19T22:37:54.561Z,90.80
2017-10-19T22:40:26.253Z,90.50
2017-10-19T22:42:57.429Z,90.50
2017-10-19T22:45:28.464Z,90.30
2017-10-19T22:47:59.864Z,89.80
2017-10-19T22:50:30.683Z,89.40
2017-10-19T22:53:02.028Z,88.90
2017-10-19T22:55:33.317Z,88.90
2017-10-19T22:58:04.250Z,88.40
2017-10-19T23:00:35.250Z,87.50
2017-10-19T23:03:06.909Z,87.50
2017-10-19T23:05:38.768Z,86.70
2017-10-19T23:08:11.100Z,86.50
2017-10-19T23:10:41.525Z,86.40
2017-10-19T23:13:12.417Z,86.50
2017-10-19T23:15:43.400Z,86.30
2017-10-19T23:18:14.125Z,86.40
2017-10-19T23:20:45.112Z,86.40
2017-10-19T23:23:17.875Z,85.60
2017-10-19T23:25:48.741Z,85.60
2017-10-19T23:28:20.211Z,87.00
2017-10-19T23:30:51.030Z,87.00
2017-10-19T23:33:22.238Z,89.70
2017-10-19T23:35:53.173Z,89.50
2017-10-19T23:38:24.390Z,90.20
2017-10-19T23:40:55.059Z,90.20
2017-10-19T23:43:26.664Z,91.10
2017-10-19T23:45:57.587Z,91.10
2017-10-19T23:48:28.533Z,90.80
2017-10-19T23:50:59.158Z,91.50
2017-10-19T23:53:30.619Z,91.60
2017-10-19T23:56:01.770Z,91.90
2017-10-19T23:58:32.147Z,91.50
